sensor_id;sensor_type;location;lat;lon;timestamp;P1;durP1;ratioP1;P2;durP2;ratioP2
2416;SDS011;1219;48.736;9.330;2022-09-09T00:01:47;3.90;;;2.00;;
2416;SDS011;1219;48.736;9.330;2022-09-09T00:04:28;2.23;;;2.03;;
2416;SDS011;1219;48.736;9.330;2022-09-09T00:06:57;3.00;;;1.90;;
2416;SDS011;1219;48.736;9.330;2022-09-09T00:09:26;2.40;;;2.10;;
2416;SDS011;1219;48.736;9.330;2022-09-09T00:14:51;2.70;;;2.50;;
2416;SDS011;1219;48.736;9.330;2022-09-09T00:17:26;2.50;;;2.10;;
2416;SDS011;1219;48.736;9.330;2022-09-09T00:19:58;4.77;;;2.80;;
2416;SDS011;1219;48.736;9.330;2022-09-09T00:22:26;3.53;;;2.47;;
2416;SDS011;1219;48.736;9.330;2022-09-09T00:24:54;3.33;;;2.17;;
2416;SDS011;1219;48.736;9.330;2022-09-09T00:30:12;5.90;;;2.00;;
2416;SDS011;1219;48.736;9.330;2022-09-09T00:32:39;4.13;;;2.10;;
2416;SDS011;1219;48.736;9.330;2022-09-09T00:37:51;2.33;;;2.10;;
2416;SDS011;1219;48.736;9.330;2022-09-09T00:40:26;3.40;;;1.77;;
2416;SDS011;1219;48.736;9.330;2022-09-09T00:42:59;2.30;;;2.00;;
2416;SDS011;1219;48.736;9.330;2022-09-09T00:47:56;2.93;;;1.97;;
2416;SDS011;1219;48.736;9.330;2022-09-09T00:57:51;8.50;;;2.40;;
2416;SDS011;1219;48.736;9.330;2022-09-09T01:07:49;2.63;;;1.90;;
2416;SDS011;1219;48.736;9.330;2022-09-09T01:10:39;2.53;;;2.33;;
2416;SDS011;1219;48.736;9.330;2022-09-09T01:13:02;2.00;;;1.90;;
2416;SDS011;1219;48.736;9.330;2022-09-09T01:15:30;3.23;;;2.13;;
2416;SDS011;1219;48.736;9.330;2022-09-09T01:17:59;2.60;;;1.70;;
2416;SDS011;1219;48.736;9.330;2022-09-09T01:20:45;3.67;;;2.13;;
2416;SDS011;1219;48.736;9.330;2022-09-09T01:23:19;2.87;;;2.07;;
2416;SDS011;1219;48.736;9.330;2022-09-09T01:28:34;2.40;;;2.20;;
2416;SDS011;1219;48.736;9.330;2022-09-09T01:31:02;4.50;;;2.20;;
2416;SDS011;1219;48.736;9.330;2022-09-09T01:33:28;4.43;;;2.20;;
2416;SDS011;1219;48.736;9.330;2022-09-09T01:36:38;5.43;;;2.90;;
2416;SDS011;1219;48.736;9.330;2022-09-09T01:38:44;2.80;;;2.17;;
2416;SDS011;1219;48.736;9.330;2022-09-09T01:41:10;3.80;;;2.20;;
2416;SDS011;1219;48.736;9.330;2022-09-09T01:43:36;5.03;;;2.37;;
2416;SDS011;1219;48.736;9.330;2022-09-09T01:46:03;3.53;;;2.23;;
2416;SDS011;1219;48.736;9.330;2022-09-09T01:48:29;3.43;;;2.43;;
2416;SDS011;1219;48.736;9.330;2022-09-09T01:50:55;3.97;;;2.57;;
2416;SDS011;1219;48.736;9.330;2022-09-09T01:53:21;4.93;;;2.10;;
2416;SDS011;1219;48.736;9.330;2022-09-09T01:58:34;2.43;;;2.00;;
2416;SDS011;1219;48.736;9.330;2022-09-09T02:03:30;1.90;;;1.80;;
2416;SDS011;1219;48.736;9.330;2022-09-09T02:11:01;5.57;;;2.60;;
2416;SDS011;1219;48.736;9.330;2022-09-09T02:13:29;2.97;;;2.20;;
2416;SDS011;1219;48.736;9.330;2022-09-09T02:16:08;7.17;;;2.77;;
2416;SDS011;1219;48.736;9.330;2022-09-09T02:21:11;2.40;;;2.20;;
2416;SDS011;1219;48.736;9.330;2022-09-09T02:23:38;2.10;;;2.00;;
2416;SDS011;1219;48.736;9.330;2022-09-09T02:26:05;3.97;;;3.67;;
2416;SDS011;1219;48.736;9.330;2022-09-09T02:28:32;3.03;;;2.77;;
2416;SDS011;1219;48.736;9.330;2022-09-09T02:30:59;4.40;;;2.40;;
2416;SDS011;1219;48.736;9.330;2022-09-09T02:33:26;3.37;;;2.10;;
2416;SDS011;1219;48.736;9.330;2022-09-09T02:35:54;2.60;;;2.17;;
2416;SDS011;1219;48.736;9.330;2022-09-09T02:38:26;4.00;;;2.23;;
2416;SDS011;1219;48.736;9.330;2022-09-09T02:40:53;3.47;;;2.53;;
2416;SDS011;1219;48.736;9.330;2022-09-09T02:43:19;3.40;;;2.17;;
2416;SDS011;1219;48.736;9.330;2022-09-09T02:45:49;2.90;;;2.33;;
2416;SDS011;1219;48.736;9.330;2022-09-09T02:48:26;3.83;;;2.20;;
2416;SDS011;1219;48.736;9.330;2022-09-09T02:50:58;2.33;;;2.13;;
2416;SDS011;1219;48.736;9.330;2022-09-09T02:56:16;2.50;;;2.10;;
2416;SDS011;1219;48.736;9.330;2022-09-09T02:58:42;7.20;;;3.20;;
2416;SDS011;1219;48.736;9.330;2022-09-09T03:01:08;3.10;;;2.10;;
2416;SDS011;1219;48.736;9.330;2022-09-09T03:03:34;2.53;;;2.13;;
2416;SDS011;1219;48.736;9.330;2022-09-09T03:06:00;5.43;;;2.93;;
2416;SDS011;1219;48.736;9.330;2022-09-09T03:08:26;2.47;;;2.27;;
2416;SDS011;1219;48.736;9.330;2022-09-09T03:10:57;4.23;;;2.30;;
2416;SDS011;1219;48.736;9.330;2022-09-09T03:13:23;2.63;;;2.43;;
2416;SDS011;1219;48.736;9.330;2022-09-09T03:15:50;2.57;;;2.37;;
2416;SDS011;1219;48.736;9.330;2022-09-09T03:18:16;2.80;;;2.33;;
2416;SDS011;1219;48.736;9.330;2022-09-09T03:20:42;5.50;;;3.80;;
2416;SDS011;1219;48.736;9.330;2022-09-09T03:23:08;5.93;;;3.23;;
2416;SDS011;1219;48.736;9.330;2022-09-09T03:25:34;3.97;;;3.67;;
2416;SDS011;1219;48.736;9.330;2022-09-09T03:28:00;8.77;;;3.50;;
2416;SDS011;1219;48.736;9.330;2022-09-09T03:30:26;7.27;;;3.00;;
2416;SDS011;1219;48.736;9.330;2022-09-09T03:32:53;3.33;;;2.80;;
2416;SDS011;1219;48.736;9.330;2022-09-09T03:35:20;6.00;;;2.50;;
2416;SDS011;1219;48.736;9.330;2022-09-09T03:37:46;6.20;;;2.83;;
2416;SDS011;1219;48.736;9.330;2022-09-09T03:40:12;7.57;;;2.80;;
2416;SDS011;1219;48.736;9.330;2022-09-09T03:42:39;8.00;;;3.40;;
2416;SDS011;1219;48.736;9.330;2022-09-09T03:45:05;3.60;;;2.60;;
2416;SDS011;1219;48.736;9.330;2022-09-09T03:47:32;3.83;;;2.73;;
2416;SDS011;1219;48.736;9.330;2022-09-09T03:49:58;2.80;;;2.60;;
2416;SDS011;1219;48.736;9.330;2022-09-09T03:52:24;5.83;;;2.90;;
2416;SDS011;1219;48.736;9.330;2022-09-09T03:54:51;3.30;;;2.40;;
2416;SDS011;1219;48.736;9.330;2022-09-09T03:57:18;5.80;;;2.57;;
2416;SDS011;1219;48.736;9.330;2022-09-09T03:59:44;3.23;;;2.43;;
2416;SDS011;1219;48.736;9.330;2022-09-09T04:02:10;3.10;;;2.50;;
2416;SDS011;1219;48.736;9.330;2022-09-09T04:04:36;2.80;;;2.43;;
2416;SDS011;1219;48.736;9.330;2022-09-09T04:07:02;3.07;;;2.53;;
2416;SDS011;1219;48.736;9.330;2022-09-09T04:09:30;4.47;;;2.53;;
2416;SDS011;1219;48.736;9.330;2022-09-09T04:11:56;4.83;;;2.30;;
2416;SDS011;1219;48.736;9.330;2022-09-09T04:14:22;4.00;;;2.23;;
2416;SDS011;1219;48.736;9.330;2022-09-09T04:16:52;7.20;;;2.27;;
2416;SDS011;1219;48.736;9.330;2022-09-09T04:19:18;4.20;;;2.60;;
2416;SDS011;1219;48.736;9.330;2022-09-09T04:21:44;3.37;;;2.20;;
2416;SDS011;1219;48.736;9.330;2022-09-09T04:24:10;2.40;;;2.10;;
2416;SDS011;1219;48.736;9.330;2022-09-09T04:26:36;3.43;;;2.53;;
2416;SDS011;1219;48.736;9.330;2022-09-09T04:29:03;3.60;;;2.27;;
2416;SDS011;1219;48.736;9.330;2022-09-09T04:31:29;2.70;;;2.50;;
2416;SDS011;1219;48.736;9.330;2022-09-09T04:33:55;3.43;;;2.20;;
2416;SDS011;1219;48.736;9.330;2022-09-09T04:36:21;2.33;;;2.13;;
2416;SDS011;1219;48.736;9.330;2022-09-09T04:38:47;2.10;;;1.90;;
2416;SDS011;1219;48.736;9.330;2022-09-09T04:41:14;2.33;;;2.13;;
2416;SDS011;1219;48.736;9.330;2022-09-09T04:43:41;2.33;;;2.00;;
2416;SDS011;1219;48.736;9.330;2022-09-09T04:46:07;3.23;;;1.97;;
2416;SDS011;1219;48.736;9.330;2022-09-09T04:48:33;4.03;;;2.37;;
2416;SDS011;1219;48.736;9.330;2022-09-09T04:51:01;2.77;;;1.97;;
2416;SDS011;1219;48.736;9.330;2022-09-09T04:53:27;4.90;;;2.33;;
2416;SDS011;1219;48.736;9.330;2022-09-09T04:56:00;5.50;;;2.07;;
2416;SDS011;1219;48.736;9.330;2022-09-09T04:58:26;4.47;;;2.47;;
2416;SDS011;1219;48.736;9.330;2022-09-09T05:00:52;5.37;;;2.00;;
2416;SDS011;1219;48.736;9.330;2022-09-09T05:03:18;2.07;;;1.87;;
2416;SDS011;1219;48.736;9.330;2022-09-09T05:05:44;2.20;;;2.00;;
2416;SDS011;1219;48.736;9.330;2022-09-09T05:08:10;5.17;;;1.83;;
2416;SDS011;1219;48.736;9.330;2022-09-09T05:10:37;2.37;;;2.00;;
2416;SDS011;1219;48.736;9.330;2022-09-09T05:13:03;4.20;;;2.27;;
2416;SDS011;1219;48.736;9.330;2022-09-09T05:15:30;2.70;;;1.87;;
2416;SDS011;1219;48.736;9.330;2022-09-09T05:17:57;2.53;;;2.00;;
2416;SDS011;1219;48.736;9.330;2022-09-09T05:20:24;9.63;;;2.73;;
2416;SDS011;1219;48.736;9.330;2022-09-09T05:22:52;5.50;;;2.30;;
2416;SDS011;1219;48.736;9.330;2022-09-09T05:25:18;3.47;;;2.20;;
2416;SDS011;1219;48.736;9.330;2022-09-09T05:27:44;3.70;;;1.93;;
2416;SDS011;1219;48.736;9.330;2022-09-09T05:30:10;3.50;;;2.43;;
2416;SDS011;1219;48.736;9.330;2022-09-09T05:32:36;3.00;;;2.13;;
2416;SDS011;1219;48.736;9.330;2022-09-09T05:35:02;2.20;;;2.00;;
2416;SDS011;1219;48.736;9.330;2022-09-09T05:37:30;4.90;;;1.90;;
2416;SDS011;1219;48.736;9.330;2022-09-09T05:39:56;2.90;;;2.67;;
2416;SDS011;1219;48.736;9.330;2022-09-09T05:42:23;3.60;;;2.50;;
2416;SDS011;1219;48.736;9.330;2022-09-09T05:44:49;4.07;;;2.77;;
2416;SDS011;1219;48.736;9.330;2022-09-09T05:47:16;2.60;;;2.07;;
2416;SDS011;1219;48.736;9.330;2022-09-09T05:49:42;4.47;;;2.10;;
2416;SDS011;1219;48.736;9.330;2022-09-09T05:52:08;4.10;;;2.67;;
2416;SDS011;1219;48.736;9.330;2022-09-09T05:54:34;5.30;;;2.20;;
2416;SDS011;1219;48.736;9.330;2022-09-09T05:57:02;2.57;;;2.30;;
2416;SDS011;1219;48.736;9.330;2022-09-09T05:59:28;6.67;;;2.90;;
2416;SDS011;1219;48.736;9.330;2022-09-09T06:01:54;3.33;;;2.70;;
2416;SDS011;1219;48.736;9.330;2022-09-09T06:04:21;2.40;;;2.20;;
2416;SDS011;1219;48.736;9.330;2022-09-09T06:06:47;2.80;;;2.40;;
2416;SDS011;1219;48.736;9.330;2022-09-09T06:09:13;2.60;;;2.00;;
2416;SDS011;1219;48.736;9.330;2022-09-09T06:11:40;4.43;;;2.40;;
2416;SDS011;1219;48.736;9.330;2022-09-09T06:14:06;3.10;;;2.20;;
2416;SDS011;1219;48.736;9.330;2022-09-09T06:16:32;6.37;;;2.40;;
2416;SDS011;1219;48.736;9.330;2022-09-09T06:18:58;2.20;;;2.00;;
2416;SDS011;1219;48.736;9.330;2022-09-09T06:21:29;3.80;;;1.70;;
2416;SDS011;1219;48.736;9.330;2022-09-09T06:23:56;5.23;;;2.63;;
2416;SDS011;1219;48.736;9.330;2022-09-09T06:26:22;8.07;;;2.53;;
2416;SDS011;1219;48.736;9.330;2022-09-09T06:28:50;2.30;;;2.10;;
2416;SDS011;1219;48.736;9.330;2022-09-09T06:31:18;3.93;;;2.70;;
2416;SDS011;1219;48.736;9.330;2022-09-09T06:33:47;3.37;;;3.07;;
2416;SDS011;1219;48.736;9.330;2022-09-09T06:36:24;3.80;;;2.60;;
2416;SDS011;1219;48.736;9.330;2022-09-09T06:38:50;4.87;;;2.40;;
2416;SDS011;1219;48.736;9.330;2022-09-09T06:41:17;7.40;;;4.03;;
2416;SDS011;1219;48.736;9.330;2022-09-09T06:43:43;2.80;;;1.80;;
2416;SDS011;1219;48.736;9.330;2022-09-09T06:48:39;6.27;;;1.97;;
2416;SDS011;1219;48.736;9.330;2022-09-09T06:51:07;4.93;;;4.20;;
2416;SDS011;1219;48.736;9.330;2022-09-09T06:53:33;2.80;;;2.00;;
2416;SDS011;1219;48.736;9.330;2022-09-09T06:56:16;5.90;;;2.47;;
2416;SDS011;1219;48.736;9.330;2022-09-09T06:58:43;3.43;;;2.10;;
2416;SDS011;1219;48.736;9.330;2022-09-09T07:01:10;2.83;;;1.60;;
2416;SDS011;1219;48.736;9.330;2022-09-09T07:03:37;3.87;;;1.77;;
2416;SDS011;1219;48.736;9.330;2022-09-09T07:06:03;1.83;;;1.60;;
2416;SDS011;1219;48.736;9.330;2022-09-09T07:08:30;5.07;;;2.20;;
2416;SDS011;1219;48.736;9.330;2022-09-09T07:11:02;3.60;;;2.27;;
2416;SDS011;1219;48.736;9.330;2022-09-09T07:13:29;3.90;;;2.10;;
2416;SDS011;1219;48.736;9.330;2022-09-09T07:16:02;1.90;;;1.70;;
2416;SDS011;1219;48.736;9.330;2022-09-09T07:18:28;3.63;;;1.80;;
2416;SDS011;1219;48.736;9.330;2022-09-09T07:20:55;3.37;;;1.60;;
2416;SDS011;1219;48.736;9.330;2022-09-09T07:23:21;2.43;;;1.90;;
2416;SDS011;1219;48.736;9.330;2022-09-09T07:25:48;3.87;;;2.07;;
2416;SDS011;1219;48.736;9.330;2022-09-09T07:28:14;2.40;;;2.10;;
2416;SDS011;1219;48.736;9.330;2022-09-09T07:30:40;7.37;;;2.10;;
2416;SDS011;1219;48.736;9.330;2022-09-09T07:33:07;3.80;;;2.30;;
2416;SDS011;1219;48.736;9.330;2022-09-09T07:35:34;2.83;;;1.60;;
2416;SDS011;1219;48.736;9.330;2022-09-09T07:38:03;4.47;;;1.70;;
2416;SDS011;1219;48.736;9.330;2022-09-09T07:40:31;3.80;;;1.60;;
2416;SDS011;1219;48.736;9.330;2022-09-09T07:42:57;3.60;;;1.67;;
2416;SDS011;1219;48.736;9.330;2022-09-09T07:45:24;3.80;;;1.83;;
2416;SDS011;1219;48.736;9.330;2022-09-09T07:47:53;3.83;;;1.50;;
2416;SDS011;1219;48.736;9.330;2022-09-09T07:50:19;2.60;;;2.23;;
2416;SDS011;1219;48.736;9.330;2022-09-09T07:52:45;2.10;;;1.93;;
2416;SDS011;1219;48.736;9.330;2022-09-09T07:55:11;2.20;;;2.10;;
2416;SDS011;1219;48.736;9.330;2022-09-09T07:57:37;1.70;;;1.60;;
2416;SDS011;1219;48.736;9.330;2022-09-09T08:00:03;4.10;;;2.00;;
2416;SDS011;1219;48.736;9.330;2022-09-09T08:02:30;1.93;;;1.73;;
2416;SDS011;1219;48.736;9.330;2022-09-09T08:04:55;2.00;;;1.90;;
2416;SDS011;1219;48.736;9.330;2022-09-09T08:07:22;2.00;;;1.80;;
2416;SDS011;1219;48.736;9.330;2022-09-09T08:09:48;5.20;;;1.70;;
2416;SDS011;1219;48.736;9.330;2022-09-09T08:12:14;2.27;;;1.70;;
2416;SDS011;1219;48.736;9.330;2022-09-09T08:14:40;3.43;;;1.97;;
2416;SDS011;1219;48.736;9.330;2022-09-09T08:17:06;3.57;;;1.50;;
2416;SDS011;1219;48.736;9.330;2022-09-09T08:19:32;2.17;;;1.70;;
2416;SDS011;1219;48.736;9.330;2022-09-09T08:22:00;2.87;;;1.73;;
2416;SDS011;1219;48.736;9.330;2022-09-09T08:24:27;2.60;;;1.60;;
2416;SDS011;1219;48.736;9.330;2022-09-09T08:26:53;4.07;;;2.17;;
2416;SDS011;1219;48.736;9.330;2022-09-09T08:29:21;2.60;;;1.90;;
2416;SDS011;1219;48.736;9.330;2022-09-09T08:31:54;1.77;;;1.60;;
2416;SDS011;1219;48.736;9.330;2022-09-09T08:34:22;1.90;;;1.70;;
2416;SDS011;1219;48.736;9.330;2022-09-09T08:36:48;2.30;;;2.10;;
2416;SDS011;1219;48.736;9.330;2022-09-09T08:39:15;2.17;;;1.40;;
2416;SDS011;1219;48.736;9.330;2022-09-09T08:47:11;1.83;;;1.43;;
2416;SDS011;1219;48.736;9.330;2022-09-09T08:52:19;2.53;;;1.60;;
2416;SDS011;1219;48.736;9.330;2022-09-09T08:54:47;2.63;;;1.70;;
2416;SDS011;1219;48.736;9.330;2022-09-09T08:57:14;3.07;;;1.53;;
2416;SDS011;1219;48.736;9.330;2022-09-09T08:59:42;2.03;;;1.70;;
2416;SDS011;1219;48.736;9.330;2022-09-09T09:02:13;3.70;;;1.50;;
2416;SDS011;1219;48.736;9.330;2022-09-09T09:04:45;1.83;;;1.33;;
2416;SDS011;1219;48.736;9.330;2022-09-09T09:12:21;3.60;;;1.50;;
2416;SDS011;1219;48.736;9.330;2022-09-09T09:14:48;1.40;;;1.30;;
2416;SDS011;1219;48.736;9.330;2022-09-09T09:17:16;5.13;;;1.50;;
2416;SDS011;1219;48.736;9.330;2022-09-09T09:19:44;1.83;;;1.60;;
2416;SDS011;1219;48.736;9.330;2022-09-09T09:22:16;1.43;;;1.33;;
2416;SDS011;1219;48.736;9.330;2022-09-09T09:27:21;2.20;;;1.50;;
2416;SDS011;1219;48.736;9.330;2022-09-09T09:29:47;1.57;;;1.33;;
2416;SDS011;1219;48.736;9.330;2022-09-09T09:32:16;1.33;;;1.23;;
2416;SDS011;1219;48.736;9.330;2022-09-09T09:34:48;5.03;;;1.40;;
2416;SDS011;1219;48.736;9.330;2022-09-09T09:37:18;4.70;;;1.40;;
2416;SDS011;1219;48.736;9.330;2022-09-09T09:39:46;2.40;;;1.37;;
2416;SDS011;1219;48.736;9.330;2022-09-09T09:42:15;1.47;;;1.30;;
2416;SDS011;1219;48.736;9.330;2022-09-09T09:44:42;4.43;;;1.20;;
2416;SDS011;1219;48.736;9.330;2022-09-09T09:47:19;2.53;;;1.17;;
2416;SDS011;1219;48.736;9.330;2022-09-09T09:49:58;1.80;;;1.00;;
2416;SDS011;1219;48.736;9.330;2022-09-09T09:52:31;2.53;;;1.13;;
2416;SDS011;1219;48.736;9.330;2022-09-09T09:54:59;7.83;;;1.83;;
2416;SDS011;1219;48.736;9.330;2022-09-09T09:57:28;1.20;;;1.10;;
2416;SDS011;1219;48.736;9.330;2022-09-09T10:00:14;1.10;;;1.00;;
2416;SDS011;1219;48.736;9.330;2022-09-09T10:02:42;3.10;;;1.10;;
2416;SDS011;1219;48.736;9.330;2022-09-09T10:05:13;1.17;;;1.07;;
2416;SDS011;1219;48.736;9.330;2022-09-09T10:07:40;2.30;;;1.20;;
2416;SDS011;1219;48.736;9.330;2022-09-09T10:10:10;1.20;;;1.10;;
2416;SDS011;1219;48.736;9.330;2022-09-09T10:12:48;1.30;;;1.20;;
2416;SDS011;1219;48.736;9.330;2022-09-09T10:18:08;1.50;;;1.40;;
2416;SDS011;1219;48.736;9.330;2022-09-09T10:26:08;1.73;;;1.10;;
2416;SDS011;1219;48.736;9.330;2022-09-09T10:28:46;1.80;;;1.37;;
2416;SDS011;1219;48.736;9.330;2022-09-09T10:33:50;1.40;;;1.07;;
2416;SDS011;1219;48.736;9.330;2022-09-09T10:36:19;2.30;;;1.30;;
2416;SDS011;1219;48.736;9.330;2022-09-09T10:38:46;5.07;;;1.50;;
2416;SDS011;1219;48.736;9.330;2022-09-09T10:46:26;1.10;;;1.00;;
2416;SDS011;1219;48.736;9.330;2022-09-09T10:49:02;2.27;;;1.20;;
2416;SDS011;1219;48.736;9.330;2022-09-09T10:51:45;2.27;;;1.20;;
2416;SDS011;1219;48.736;9.330;2022-09-09T10:56:41;2.67;;;0.93;;
2416;SDS011;1219;48.736;9.330;2022-09-09T10:59:12;4.57;;;1.13;;
2416;SDS011;1219;48.736;9.330;2022-09-09T11:01:41;1.60;;;1.03;;
2416;SDS011;1219;48.736;9.330;2022-09-09T11:04:19;1.80;;;1.03;;
2416;SDS011;1219;48.736;9.330;2022-09-09T11:06:48;2.23;;;1.30;;
2416;SDS011;1219;48.736;9.330;2022-09-09T11:09:19;3.70;;;1.10;;
2416;SDS011;1219;48.736;9.330;2022-09-09T11:11:49;2.07;;;1.20;;
2416;SDS011;1219;48.736;9.330;2022-09-09T11:14:26;3.13;;;1.40;;
2416;SDS011;1219;48.736;9.330;2022-09-09T11:16:59;1.30;;;1.00;;
2416;SDS011;1219;48.736;9.330;2022-09-09T11:22:03;1.37;;;1.20;;
2416;SDS011;1219;48.736;9.330;2022-09-09T11:24:38;2.73;;;1.10;;
2416;SDS011;1219;48.736;9.330;2022-09-09T11:38:02;5.17;;;1.30;;
2416;SDS011;1219;48.736;9.330;2022-09-09T11:40:30;3.50;;;1.63;;
2416;SDS011;1219;48.736;9.330;2022-09-09T11:43:00;3.73;;;1.77;;
2416;SDS011;1219;48.736;9.330;2022-09-09T11:45:29;5.00;;;2.13;;
2416;SDS011;1219;48.736;9.330;2022-09-09T11:47:59;3.63;;;1.83;;
2416;SDS011;1219;48.736;9.330;2022-09-09T11:53:02;1.70;;;1.53;;
2416;SDS011;1219;48.736;9.330;2022-09-09T11:55:29;1.60;;;1.50;;
2416;SDS011;1219;48.736;9.330;2022-09-09T11:58:01;2.03;;;1.57;;
2416;SDS011;1219;48.736;9.330;2022-09-09T12:00:49;2.33;;;1.50;;
2416;SDS011;1219;48.736;9.330;2022-09-09T12:05:59;2.23;;;1.40;;
2416;SDS011;1219;48.736;9.330;2022-09-09T12:08:28;2.17;;;1.40;;
2416;SDS011;1219;48.736;9.330;2022-09-09T12:10:55;2.77;;;1.30;;
2416;SDS011;1219;48.736;9.330;2022-09-09T12:13:22;1.20;;;1.10;;
2416;SDS011;1219;48.736;9.330;2022-09-09T12:15:53;3.20;;;1.10;;
2416;SDS011;1219;48.736;9.330;2022-09-09T12:18:32;0.90;;;0.90;;
2416;SDS011;1219;48.736;9.330;2022-09-09T12:33:33;1.00;;;0.90;;
2416;SDS011;1219;48.736;9.330;2022-09-09T12:35:59;0.80;;;0.80;;
2416;SDS011;1219;48.736;9.330;2022-09-09T12:40:54;1.10;;;1.00;;
2416;SDS011;1219;48.736;9.330;2022-09-09T12:43:21;0.90;;;0.90;;
2416;SDS011;1219;48.736;9.330;2022-09-09T12:45:48;2.10;;;1.00;;
2416;SDS011;1219;48.736;9.330;2022-09-09T12:48:16;1.53;;;0.93;;
2416;SDS011;1219;48.736;9.330;2022-09-09T12:50:49;1.37;;;1.27;;
2416;SDS011;1219;48.736;9.330;2022-09-09T12:53:23;3.17;;;1.10;;
2416;SDS011;1219;48.736;9.330;2022-09-09T12:56:01;1.43;;;1.00;;
2416;SDS011;1219;48.736;9.330;2022-09-09T12:58:27;1.47;;;0.90;;
2416;SDS011;1219;48.736;9.330;2022-09-09T13:00:57;3.33;;;1.00;;
2416;SDS011;1219;48.736;9.330;2022-09-09T13:03:24;1.37;;;1.10;;
2416;SDS011;1219;48.736;9.330;2022-09-09T13:05:50;1.20;;;0.90;;
2416;SDS011;1219;48.736;9.330;2022-09-09T13:08:16;1.70;;;1.17;;
2416;SDS011;1219;48.736;9.330;2022-09-09T13:13:15;1.00;;;1.00;;
2416;SDS011;1219;48.736;9.330;2022-09-09T13:15:48;2.20;;;1.00;;
2416;SDS011;1219;48.736;9.330;2022-09-09T13:18:14;2.47;;;1.30;;
2416;SDS011;1219;48.736;9.330;2022-09-09T13:20:45;1.10;;;1.00;;
2416;SDS011;1219;48.736;9.330;2022-09-09T13:23:12;1.33;;;1.00;;
2416;SDS011;1219;48.736;9.330;2022-09-09T13:25:38;1.27;;;1.00;;
2416;SDS011;1219;48.736;9.330;2022-09-09T13:28:05;1.63;;;1.10;;
2416;SDS011;1219;48.736;9.330;2022-09-09T13:30:35;2.10;;;1.00;;
2416;SDS011;1219;48.736;9.330;2022-09-09T13:35:35;2.20;;;1.00;;
2416;SDS011;1219;48.736;9.330;2022-09-09T13:38:06;2.27;;;0.90;;
2416;SDS011;1219;48.736;9.330;2022-09-09T13:40:33;1.30;;;1.03;;
2416;SDS011;1219;48.736;9.330;2022-09-09T13:42:59;3.43;;;1.00;;
2416;SDS011;1219;48.736;9.330;2022-09-09T13:45:27;3.47;;;1.10;;
2416;SDS011;1219;48.736;9.330;2022-09-09T13:47:53;1.00;;;1.00;;
2416;SDS011;1219;48.736;9.330;2022-09-09T13:52:53;1.07;;;0.97;;
2416;SDS011;1219;48.736;9.330;2022-09-09T13:55:20;0.80;;;0.80;;
2416;SDS011;1219;48.736;9.330;2022-09-09T13:58:05;1.03;;;0.93;;
2416;SDS011;1219;48.736;9.330;2022-09-09T14:00:32;1.20;;;1.10;;
2416;SDS011;1219;48.736;9.330;2022-09-09T14:02:58;1.57;;;0.80;;
2416;SDS011;1219;48.736;9.330;2022-09-09T14:05:29;1.60;;;0.97;;
2416;SDS011;1219;48.736;9.330;2022-09-09T14:07:55;1.57;;;1.10;;
2416;SDS011;1219;48.736;9.330;2022-09-09T14:10:23;1.07;;;0.97;;
2416;SDS011;1219;48.736;9.330;2022-09-09T14:12:49;2.40;;;1.00;;
2416;SDS011;1219;48.736;9.330;2022-09-09T14:15:14;2.00;;;0.90;;
2416;SDS011;1219;48.736;9.330;2022-09-09T14:17:41;2.17;;;1.00;;
2416;SDS011;1219;48.736;9.330;2022-09-09T14:20:07;1.90;;;1.10;;
2416;SDS011;1219;48.736;9.330;2022-09-09T14:22:33;2.30;;;1.00;;
2416;SDS011;1219;48.736;9.330;2022-09-09T14:24:59;1.10;;;0.80;;
2416;SDS011;1219;48.736;9.330;2022-09-09T14:27:25;1.37;;;0.80;;
2416;SDS011;1219;48.736;9.330;2022-09-09T14:29:51;1.90;;;0.80;;
2416;SDS011;1219;48.736;9.330;2022-09-09T14:32:17;1.00;;;0.80;;
2416;SDS011;1219;48.736;9.330;2022-09-09T14:34:44;1.00;;;0.90;;
2416;SDS011;1219;48.736;9.330;2022-09-09T14:37:10;1.43;;;1.03;;
2416;SDS011;1219;48.736;9.330;2022-09-09T14:39:36;0.70;;;0.70;;
2416;SDS011;1219;48.736;9.330;2022-09-09T14:42:02;1.80;;;0.90;;
2416;SDS011;1219;48.736;9.330;2022-09-09T14:44:28;1.60;;;0.90;;
2416;SDS011;1219;48.736;9.330;2022-09-09T14:46:54;0.70;;;0.70;;
2416;SDS011;1219;48.736;9.330;2022-09-09T14:49:20;0.77;;;0.77;;
2416;SDS011;1219;48.736;9.330;2022-09-09T14:51:46;1.77;;;0.90;;
2416;SDS011;1219;48.736;9.330;2022-09-09T14:54:12;2.17;;;0.90;;
2416;SDS011;1219;48.736;9.330;2022-09-09T14:56:39;2.33;;;0.93;;
2416;SDS011;1219;48.736;9.330;2022-09-09T14:59:05;1.93;;;0.93;;
2416;SDS011;1219;48.736;9.330;2022-09-09T15:01:31;1.37;;;0.77;;
2416;SDS011;1219;48.736;9.330;2022-09-09T15:03:58;0.80;;;0.80;;
2416;SDS011;1219;48.736;9.330;2022-09-09T15:06:25;2.43;;;0.80;;
2416;SDS011;1219;48.736;9.330;2022-09-09T15:08:52;1.00;;;0.90;;
2416;SDS011;1219;48.736;9.330;2022-09-09T15:11:19;1.37;;;1.00;;
2416;SDS011;1219;48.736;9.330;2022-09-09T15:13:46;1.00;;;0.90;;
2416;SDS011;1219;48.736;9.330;2022-09-09T15:18:38;1.47;;;0.90;;
2416;SDS011;1219;48.736;9.330;2022-09-09T15:21:15;1.83;;;0.90;;
2416;SDS011;1219;48.736;9.330;2022-09-09T15:23:41;2.10;;;0.90;;
2416;SDS011;1219;48.736;9.330;2022-09-09T15:26:08;2.23;;;1.30;;
2416;SDS011;1219;48.736;9.330;2022-09-09T15:28:35;1.20;;;1.10;;
2416;SDS011;1219;48.736;9.330;2022-09-09T15:31:06;1.03;;;0.90;;
2416;SDS011;1219;48.736;9.330;2022-09-09T15:33:33;1.50;;;1.00;;
2416;SDS011;1219;48.736;9.330;2022-09-09T15:36:11;1.10;;;1.00;;
2416;SDS011;1219;48.736;9.330;2022-09-09T15:38:37;2.30;;;1.00;;
2416;SDS011;1219;48.736;9.330;2022-09-09T15:41:03;1.20;;;0.90;;
2416;SDS011;1219;48.736;9.330;2022-09-09T15:43:29;1.80;;;0.87;;
2416;SDS011;1219;48.736;9.330;2022-09-09T15:45:57;1.10;;;1.00;;
2416;SDS011;1219;48.736;9.330;2022-09-09T15:48:29;2.30;;;1.00;;
2416;SDS011;1219;48.736;9.330;2022-09-09T15:51:06;1.47;;;0.90;;
2416;SDS011;1219;48.736;9.330;2022-09-09T15:53:34;1.80;;;1.00;;
2416;SDS011;1219;48.736;9.330;2022-09-09T15:56:00;2.50;;;1.10;;
2416;SDS011;1219;48.736;9.330;2022-09-09T15:58:29;3.70;;;1.00;;
2416;SDS011;1219;48.736;9.330;2022-09-09T16:01:01;1.57;;;1.20;;
2416;SDS011;1219;48.736;9.330;2022-09-09T16:03:27;1.97;;;0.97;;
2416;SDS011;1219;48.736;9.330;2022-09-09T16:05:54;1.20;;;1.00;;
2416;SDS011;1219;48.736;9.330;2022-09-09T16:08:20;1.43;;;1.00;;
2416;SDS011;1219;48.736;9.330;2022-09-09T16:10:46;2.27;;;1.10;;
2416;SDS011;1219;48.736;9.330;2022-09-09T16:13:13;1.67;;;0.97;;
2416;SDS011;1219;48.736;9.330;2022-09-09T16:15:39;3.27;;;1.00;;
2416;SDS011;1219;48.736;9.330;2022-09-09T16:18:05;1.93;;;1.00;;
2416;SDS011;1219;48.736;9.330;2022-09-09T16:20:31;1.20;;;1.10;;
2416;SDS011;1219;48.736;9.330;2022-09-09T16:22:57;1.20;;;1.10;;
2416;SDS011;1219;48.736;9.330;2022-09-09T16:25:22;3.03;;;1.00;;
2416;SDS011;1219;48.736;9.330;2022-09-09T16:27:48;1.10;;;1.00;;
2416;SDS011;1219;48.736;9.330;2022-09-09T16:30:14;1.20;;;1.07;;
2416;SDS011;1219;48.736;9.330;2022-09-09T16:32:40;1.00;;;0.90;;
2416;SDS011;1219;48.736;9.330;2022-09-09T16:35:06;1.10;;;1.00;;
2416;SDS011;1219;48.736;9.330;2022-09-09T16:37:32;2.17;;;1.00;;
2416;SDS011;1219;48.736;9.330;2022-09-09T16:39:59;1.30;;;1.10;;
2416;SDS011;1219;48.736;9.330;2022-09-09T16:42:24;1.30;;;1.07;;
2416;SDS011;1219;48.736;9.330;2022-09-09T16:44:51;1.10;;;1.00;;
2416;SDS011;1219;48.736;9.330;2022-09-09T16:47:17;2.30;;;1.03;;
2416;SDS011;1219;48.736;9.330;2022-09-09T16:49:43;2.00;;;1.00;;
2416;SDS011;1219;48.736;9.330;2022-09-09T16:52:08;1.27;;;1.17;;
2416;SDS011;1219;48.736;9.330;2022-09-09T16:54:34;1.07;;;0.90;;
2416;SDS011;1219;48.736;9.330;2022-09-09T16:57:00;1.10;;;1.00;;
2416;SDS011;1219;48.736;9.330;2022-09-09T16:59:26;1.40;;;1.00;;
2416;SDS011;1219;48.736;9.330;2022-09-09T17:01:52;1.27;;;1.17;;
2416;SDS011;1219;48.736;9.330;2022-09-09T17:04:21;1.37;;;1.27;;
2416;SDS011;1219;48.736;9.330;2022-09-09T17:06:49;1.60;;;1.20;;
2416;SDS011;1219;48.736;9.330;2022-09-09T17:09:16;2.63;;;1.10;;
2416;SDS011;1219;48.736;9.330;2022-09-09T17:11:42;2.03;;;1.23;;
2416;SDS011;1219;48.736;9.330;2022-09-09T17:14:10;1.30;;;1.20;;
2416;SDS011;1219;48.736;9.330;2022-09-09T17:16:37;1.10;;;1.00;;
2416;SDS011;1219;48.736;9.330;2022-09-09T17:19:04;2.60;;;1.10;;
2416;SDS011;1219;48.736;9.330;2022-09-09T17:21:31;1.37;;;1.13;;
2416;SDS011;1219;48.736;9.330;2022-09-09T17:23:58;1.70;;;1.00;;
2416;SDS011;1219;48.736;9.330;2022-09-09T17:26:25;2.90;;;0.93;;